createdAt,value
2022-10-20T00:02:06.146Z,17.30
2022-10-20T00:04:37.882Z,20.60
2022-10-20T00:07:09.449Z,16.70
2022-10-20T00:09:41.015Z,14.80
2022-10-20T00:12:12.595Z,20.30
2022-10-20T00:14:44.146Z,16.40
2022-10-20T00:17:15.847Z,16.20
2022-10-20T00:19:50.120Z,15.80
2022-10-20T00:22:21.777Z,16.00
2022-10-20T00:24:54.078Z,15.90
2022-10-20T00:27:26.242Z,16.10
2022-10-20T00:29:57.968Z,16.50
2022-10-20T00:32:30.738Z,16.20
2022-10-20T00:37:32.451Z,16.70
2022-10-20T00:40:04.287Z,15.90
2022-10-20T00:42:36.244Z,10.80
2022-10-20T00:45:15.595Z,15.30
2022-10-20T00:47:50.412Z,16.50
2022-10-20T00:50:25.394Z,16.40
2022-10-20T00:52:57.801Z,16.10
2022-10-20T00:55:31.917Z,15.40
2022-10-20T00:58:04.671Z,17.00
2022-10-20T01:03:09.233Z,16.10
2022-10-20T01:05:41.166Z,17.20
2022-10-20T01:08:12.738Z,15.80
2022-10-20T01:11:00.723Z,16.30
2022-10-20T01:13:44.290Z,16.70
2022-10-20T01:16:27.276Z,18.00
2022-10-20T01:21:57.582Z,14.50
2022-10-20T01:24:49.305Z,14.60
2022-10-20T01:27:39.458Z,15.50
2022-10-20T01:30:15.150Z,14.50
2022-10-20T01:33:15.411Z,15.20
2022-10-20T01:36:00.345Z,15.60
2022-10-20T01:38:40.157Z,15.70
2022-10-20T01:41:19.069Z,14.80
2022-10-20T01:43:53.538Z,14.90
2022-10-20T01:46:28.914Z,15.90
2022-10-20T01:49:02.228Z,15.00
2022-10-20T01:51:35.208Z,16.40
2022-10-20T01:54:07.349Z,16.50
2022-10-20T01:56:48.142Z,15.40
2022-10-20T01:59:33.928Z,15.30
2022-10-20T02:02:21.047Z,18.50
2022-10-20T02:05:08.500Z,16.50
2022-10-20T02:07:43.094Z,15.60
2022-10-20T02:10:20.214Z,16.30
2022-10-20T02:12:57.907Z,17.00
2022-10-20T02:15:32.955Z,17.90
2022-10-20T02:18:08.361Z,15.80
2022-10-20T02:20:43.246Z,15.20
2022-10-20T02:23:15.305Z,14.00
2022-10-20T02:25:50.528Z,8.90
2022-10-20T02:28:23.209Z,13.70
2022-10-20T02:33:25.902Z,13.90
2022-10-20T02:36:00.553Z,14.00
2022-10-20T02:38:32.209Z,14.20
2022-10-20T02:41:03.793Z,11.70
2022-10-20T02:43:35.461Z,13.00
2022-10-20T02:46:07.687Z,14.30
2022-10-20T02:48:39.327Z,13.20
2022-10-20T02:51:10.881Z,13.30
2022-10-20T02:53:42.468Z,13.50
2022-10-20T02:56:14.586Z,12.30
2022-10-20T02:58:46.299Z,13.70
2022-10-20T03:01:18.053Z,11.80
2022-10-20T03:03:49.726Z,13.50
2022-10-20T03:06:21.392Z,13.30
2022-10-20T03:08:53.095Z,14.90
2022-10-20T03:11:25.083Z,12.10
2022-10-20T03:13:56.638Z,13.40
2022-10-20T03:16:28.375Z,12.20
2022-10-20T03:19:03.448Z,13.20
2022-10-20T03:21:38.052Z,14.00
2022-10-20T03:24:09.820Z,12.80
2022-10-20T03:26:41.393Z,12.20
2022-10-20T03:29:13.023Z,12.80
2022-10-20T03:31:44.816Z,13.80
2022-10-20T03:34:16.529Z,12.70
2022-10-20T03:36:48.073Z,12.80
2022-10-20T03:39:19.782Z,12.70
2022-10-20T03:41:51.353Z,13.50
2022-10-20T03:44:23.103Z,8.90
2022-10-20T03:46:54.657Z,12.90
2022-10-20T03:49:26.639Z,14.70
2022-10-20T03:51:58.826Z,14.80
2022-10-20T03:54:30.397Z,15.20
2022-10-20T03:57:05.447Z,14.60
2022-10-20T03:59:39.432Z,15.20
2022-10-20T04:02:19.472Z,14.40
2022-10-20T04:04:51.066Z,15.40
2022-10-20T04:07:22.676Z,15.50
2022-10-20T04:09:54.454Z,14.50
2022-10-20T04:12:26.396Z,9.50
2022-10-20T04:14:57.997Z,15.70
2022-10-20T04:17:30.745Z,14.70
2022-10-20T04:20:02.404Z,13.40
2022-10-20T04:22:34.523Z,16.30
2022-10-20T04:25:08.573Z,14.80
2022-10-20T04:27:40.829Z,15.80
2022-10-20T04:30:14.242Z,17.00
2022-10-20T04:32:46.020Z,16.30
2022-10-20T04:35:18.057Z,14.60
2022-10-20T04:37:49.668Z,15.40
2022-10-20T04:40:21.445Z,14.40
2022-10-20T04:42:53.044Z,16.30
2022-10-20T04:45:25.245Z,16.30
2022-10-20T04:47:57.667Z,12.10
2022-10-20T04:50:29.355Z,15.90
2022-10-20T04:53:13.495Z,15.90
2022-10-20T04:55:45.156Z,15.80
2022-10-20T04:58:17.143Z,15.40
2022-10-20T05:00:48.721Z,18.50
2022-10-20T05:03:20.952Z,15.70
2022-10-20T05:05:52.869Z,21.70
2022-10-20T05:08:24.665Z,26.30
2022-10-20T05:10:56.305Z,16.10
2022-10-20T05:13:28.187Z,13.50
2022-10-20T05:16:00.161Z,19.30
2022-10-20T05:18:32.022Z,17.50
2022-10-20T05:21:09.379Z,16.30
2022-10-20T05:23:42.637Z,15.90
2022-10-20T05:26:16.672Z,16.90
2022-10-20T05:28:50.329Z,17.20
2022-10-20T05:31:24.571Z,15.70
2022-10-20T05:33:58.348Z,16.40
2022-10-20T05:36:30.059Z,17.80
2022-10-20T05:39:01.870Z,15.90
2022-10-20T05:41:38.105Z,14.80
2022-10-20T05:44:14.738Z,17.50
2022-10-20T05:46:46.573Z,19.60
2022-10-20T05:49:19.381Z,19.30
2022-10-20T05:54:21.930Z,19.10
2022-10-20T05:56:53.718Z,20.00
2022-10-20T05:59:25.600Z,19.80
2022-10-20T06:01:57.236Z,19.90
2022-10-20T06:04:29.083Z,20.40
2022-10-20T06:07:01.078Z,13.10
2022-10-20T06:09:33.182Z,22.00
2022-10-20T06:12:05.458Z,21.70
2022-10-20T06:14:37.582Z,20.70
2022-10-20T06:17:10.446Z,21.60
2022-10-20T06:19:42.086Z,21.50
2022-10-20T06:22:13.769Z,23.70
2022-10-20T06:24:45.477Z,21.00
2022-10-20T06:27:17.255Z,22.50
2022-10-20T06:29:49.045Z,23.10
2022-10-20T06:32:20.996Z,23.80
2022-10-20T06:34:54.212Z,24.00
2022-10-20T06:37:25.844Z,21.70
2022-10-20T06:40:01.827Z,22.80
2022-10-20T06:42:33.843Z,21.40
2022-10-20T06:45:07.253Z,21.90
2022-10-20T06:47:39.497Z,19.90
2022-10-20T06:50:12.124Z,20.90
2022-10-20T06:52:43.857Z,22.00
2022-10-20T06:55:15.760Z,22.80
2022-10-20T06:57:47.402Z,23.00
2022-10-20T07:00:19.895Z,23.60
2022-10-20T07:02:51.609Z,23.50
2022-10-20T07:05:23.514Z,25.50
2022-10-20T07:07:56.986Z,15.60
2022-10-20T07:10:28.794Z,23.90
2022-10-20T07:13:00.847Z,17.20
2022-10-20T07:15:32.535Z,25.00
2022-10-20T07:18:04.253Z,26.10
2022-10-20T07:20:36.224Z,26.70
2022-10-20T07:23:07.794Z,26.30
2022-10-20T07:25:39.560Z,23.90
2022-10-20T07:28:11.167Z,22.30
2022-10-20T07:30:43.369Z,23.20
2022-10-20T07:33:15.150Z,23.70
2022-10-20T07:35:46.978Z,22.20
2022-10-20T07:38:19.177Z,23.60
2022-10-20T07:40:50.871Z,21.90
2022-10-20T07:43:22.472Z,22.00
2022-10-20T07:45:54.093Z,22.70
2022-10-20T07:48:25.887Z,23.30
2022-10-20T07:53:46.937Z,20.80
2022-10-20T07:56:20.597Z,21.50
2022-10-20T07:58:52.293Z,21.40
2022-10-20T08:01:24.500Z,21.90
2022-10-20T08:03:56.652Z,19.40
2022-10-20T08:06:29.351Z,15.40
2022-10-20T08:09:01.257Z,17.80
2022-10-20T08:11:33.192Z,18.80
2022-10-20T08:14:05.172Z,13.10
2022-10-20T08:16:36.831Z,16.50
2022-10-20T08:21:54.178Z,16.00
2022-10-20T08:24:25.926Z,14.20
2022-10-20T08:26:57.678Z,12.80
2022-10-20T08:29:29.536Z,9.60
2022-10-20T08:32:01.285Z,8.30
2022-10-20T08:34:33.054Z,11.50
2022-10-20T08:37:04.691Z,10.20
2022-10-20T08:39:36.313Z,8.80
2022-10-20T08:42:11.010Z,7.50
2022-10-20T08:44:46.035Z,7.10
2022-10-20T08:47:30.878Z,6.80
2022-10-20T08:50:09.314Z,7.00
2022-10-20T08:52:43.424Z,7.30
2022-10-20T08:55:24.107Z,6.00
2022-10-20T08:58:00.881Z,6.10
2022-10-20T09:00:34.126Z,5.90
2022-10-20T09:03:15.276Z,6.30
2022-10-20T09:05:50.646Z,6.00
2022-10-20T09:08:24.195Z,5.70
2022-10-20T09:10:57.042Z,5.90
2022-10-20T09:16:03.829Z,8.10
2022-10-20T09:18:36.344Z,7.70
2022-10-20T09:21:14.326Z,6.90
2022-10-20T09:23:49.464Z,6.80
2022-10-20T09:26:37.367Z,6.90
2022-10-20T09:29:16.352Z,5.70
2022-10-20T09:31:52.177Z,6.70
2022-10-20T09:34:27.387Z,6.40
2022-10-20T09:37:04.416Z,5.70
2022-10-20T09:39:43.166Z,6.20
2022-10-20T09:42:19.948Z,4.90
2022-10-20T09:44:57.689Z,6.30
2022-10-20T09:47:30.202Z,6.00
2022-10-20T09:50:05.176Z,5.60
2022-10-20T09:52:47.780Z,4.80
2022-10-20T09:55:27.326Z,5.20
2022-10-20T09:58:02.754Z,4.90
2022-10-20T10:00:38.302Z,4.20
2022-10-20T10:03:21.470Z,4.20
2022-10-20T10:05:56.961Z,5.20
2022-10-20T10:08:41.907Z,4.60
2022-10-20T10:11:18.889Z,4.20
2022-10-20T10:13:52.512Z,4.00
2022-10-20T10:16:25.632Z,4.30
2022-10-20T10:19:03.313Z,4.00
2022-10-20T10:21:47.491Z,3.70
2022-10-20T10:24:36.489Z,3.70
2022-10-20T10:27:19.353Z,3.20
2022-10-20T10:29:51.009Z,3.80
2022-10-20T10:32:27.157Z,3.80
2022-10-20T10:35:14.412Z,4.00
2022-10-20T10:37:48.195Z,3.90
2022-10-20T10:40:21.554Z,4.20
2022-10-20T10:43:07.977Z,4.30
2022-10-20T10:45:53.082Z,3.10
2022-10-20T10:48:50.412Z,3.80
2022-10-20T10:51:35.186Z,4.50
2022-10-20T10:54:21.187Z,4.00
2022-10-20T10:56:56.129Z,3.80
2022-10-20T10:59:34.043Z,4.30
2022-10-20T11:02:41.410Z,4.50
2022-10-20T11:05:32.281Z,4.80
2022-10-20T11:08:16.709Z,4.50
2022-10-20T11:10:55.586Z,4.20
2022-10-20T11:13:38.834Z,3.80
2022-10-20T11:16:24.544Z,4.50
2022-10-20T11:19:17.141Z,4.20
2022-10-20T11:21:59.474Z,6.20
2022-10-20T11:24:46.685Z,4.10
2022-10-20T11:27:23.484Z,4.90
2022-10-20T11:30:04.718Z,4.80
2022-10-20T11:32:42.207Z,4.70
2022-10-20T11:35:22.798Z,4.50
2022-10-20T11:38:04.244Z,4.40
2022-10-20T11:40:44.761Z,3.90
2022-10-20T11:43:23.239Z,4.30
2022-10-20T11:45:58.836Z,4.40
2022-10-20T11:48:36.052Z,4.40
2022-10-20T11:51:33.661Z,5.30
2022-10-20T11:54:28.119Z,5.20
2022-10-20T11:57:16.074Z,5.70
2022-10-20T12:00:16.482Z,5.10
2022-10-20T12:03:16.241Z,5.00
2022-10-20T12:06:09.132Z,5.60
2022-10-20T12:09:03.744Z,6.30
2022-10-20T12:11:42.839Z,5.70
2022-10-20T12:14:25.661Z,5.20
2022-10-20T12:17:28.775Z,5.90
2022-10-20T12:22:45.075Z,5.50
2022-10-20T12:25:36.790Z,4.80
2022-10-20T12:28:49.002Z,4.70
2022-10-20T12:31:22.062Z,4.50
2022-10-20T12:34:03.920Z,4.30
2022-10-20T12:36:40.532Z,4.30
2022-10-20T12:39:18.607Z,4.40
2022-10-20T12:42:01.187Z,4.30
2022-10-20T12:44:44.416Z,4.60
2022-10-20T12:47:24.777Z,4.50
2022-10-20T12:50:00.878Z,4.20
2022-10-20T12:52:34.753Z,3.70
2022-10-20T12:55:10.179Z,3.80
2022-10-20T12:57:44.083Z,5.40
2022-10-20T13:00:46.511Z,4.60
2022-10-20T13:03:38.773Z,4.40
2022-10-20T13:06:45.593Z,5.40
2022-10-20T13:09:26.562Z,4.30
2022-10-20T13:12:06.076Z,5.00
2022-10-20T13:14:51.550Z,5.40
2022-10-20T13:17:29.563Z,5.60
2022-10-20T13:20:08.075Z,5.30
2022-10-20T13:22:46.817Z,5.90
2022-10-20T13:25:38.378Z,5.50
2022-10-20T13:28:20.536Z,5.50
2022-10-20T13:31:17.909Z,7.10
2022-10-20T13:34:04.858Z,6.00
2022-10-20T13:37:13.414Z,7.00
2022-10-20T13:39:55.700Z,5.60
2022-10-20T13:42:43.330Z,6.20
2022-10-20T13:45:29.918Z,6.00
2022-10-20T13:48:16.214Z,6.20
2022-10-20T13:50:55.005Z,5.60
2022-10-20T13:53:30.463Z,5.30
2022-10-20T13:56:06.887Z,5.80
2022-10-20T13:58:38.725Z,5.80
2022-10-20T14:01:24.353Z,5.20
2022-10-20T14:03:56.604Z,7.20
2022-10-20T14:06:37.565Z,4.90
2022-10-20T14:09:19.397Z,6.00
2022-10-20T14:11:54.209Z,5.90
2022-10-20T14:14:30.220Z,5.70
2022-10-20T14:17:03.995Z,7.10
2022-10-20T14:19:36.597Z,6.00
2022-10-20T14:22:21.453Z,6.40
2022-10-20T14:24:55.682Z,5.10
2022-10-20T14:27:30.409Z,6.70
2022-10-20T14:30:05.450Z,5.70
2022-10-20T14:32:41.441Z,6.50
2022-10-20T14:35:29.695Z,5.90
2022-10-20T14:38:08.732Z,6.50
2022-10-20T14:40:40.612Z,6.10
2022-10-20T14:43:18.359Z,6.00
2022-10-20T14:45:58.173Z,6.00
2022-10-20T14:48:35.165Z,6.20
2022-10-20T14:51:34.261Z,6.70
2022-10-20T14:54:28.326Z,6.00
2022-10-20T14:57:01.916Z,6.30
2022-10-20T14:59:36.214Z,6.00
2022-10-20T15:02:12.710Z,5.70
2022-10-20T15:04:46.010Z,6.70
2022-10-20T15:07:20.843Z,5.70
2022-10-20T15:09:55.076Z,7.20
2022-10-20T15:12:35.752Z,6.90
2022-10-20T15:15:19.509Z,6.80
2022-10-20T15:17:52.900Z,6.70
2022-10-20T15:20:39.041Z,7.50
2022-10-20T15:23:13.468Z,7.60
2022-10-20T15:25:49.609Z,7.40
2022-10-20T15:28:38.299Z,7.00
2022-10-20T15:31:20.960Z,8.50
2022-10-20T15:33:53.763Z,8.00
2022-10-20T15:36:29.228Z,7.80
2022-10-20T15:39:01.597Z,8.80
2022-10-20T15:41:35.916Z,8.30
2022-10-20T15:44:17.238Z,8.50
2022-10-20T15:46:49.730Z,8.30
2022-10-20T15:49:21.890Z,8.20
2022-10-20T15:51:53.656Z,8.70
2022-10-20T15:54:25.529Z,8.60
2022-10-20T15:56:57.900Z,9.00
2022-10-20T15:59:30.206Z,9.20
2022-10-20T16:02:02.710Z,9.20
2022-10-20T16:04:35.303Z,9.10
2022-10-20T16:07:12.562Z,9.00
2022-10-20T16:09:44.944Z,11.60
2022-10-20T16:12:17.391Z,10.40
2022-10-20T16:14:49.590Z,10.00
2022-10-20T16:17:24.426Z,9.00
2022-10-20T16:20:00.377Z,9.60
2022-10-20T16:22:32.432Z,8.80
2022-10-20T16:25:05.243Z,6.40
2022-10-20T16:27:37.226Z,9.20
2022-10-20T16:30:11.022Z,10.10
2022-10-20T16:32:42.765Z,10.60
2022-10-20T16:35:14.475Z,11.40
2022-10-20T16:37:46.304Z,11.30
2022-10-20T16:40:18.008Z,12.40
2022-10-20T16:42:49.653Z,12.70
2022-10-20T16:45:24.657Z,13.40
2022-10-20T16:47:56.467Z,13.00
2022-10-20T16:50:28.324Z,14.20
2022-10-20T16:53:00.229Z,9.10
2022-10-20T16:55:32.315Z,14.40
2022-10-20T16:58:04.003Z,13.80
2022-10-20T17:00:35.756Z,14.30
2022-10-20T17:03:07.562Z,13.80
2022-10-20T17:05:39.430Z,10.20
2022-10-20T17:08:11.390Z,14.80
2022-10-20T17:10:43.308Z,14.30
2022-10-20T17:13:15.132Z,16.20
2022-10-20T17:15:47.469Z,10.90
2022-10-20T17:18:19.275Z,15.70
2022-10-20T17:20:56.165Z,16.50
2022-10-20T17:23:28.501Z,16.60
2022-10-20T17:26:02.367Z,16.10
2022-10-20T17:28:35.972Z,16.30
2022-10-20T17:31:12.235Z,15.30
2022-10-20T17:33:45.043Z,14.70
2022-10-20T17:36:19.984Z,15.00
2022-10-20T17:38:57.130Z,15.10
2022-10-20T17:41:30.313Z,15.30
2022-10-20T17:44:04.580Z,14.70
2022-10-20T17:46:36.831Z,15.30
2022-10-20T17:49:08.980Z,14.90
2022-10-20T17:51:41.099Z,15.40
2022-10-20T17:54:12.916Z,15.70
2022-10-20T17:56:44.874Z,10.70
2022-10-20T17:59:17.182Z,13.90
2022-10-20T18:01:49.133Z,13.00
2022-10-20T18:04:21.015Z,15.30
2022-10-20T18:06:54.287Z,10.10
2022-10-20T18:09:25.996Z,14.00
2022-10-20T18:11:57.864Z,15.30
2022-10-20T18:14:29.610Z,14.50
2022-10-20T18:17:01.728Z,13.40
2022-10-20T18:19:33.430Z,11.10
2022-10-20T18:22:05.657Z,14.40
2022-10-20T18:24:37.479Z,15.10
2022-10-20T18:27:09.244Z,14.40
2022-10-20T18:29:41.620Z,13.00
2022-10-20T18:32:13.671Z,13.60
2022-10-20T18:34:47.002Z,14.90
2022-10-20T18:37:19.511Z,13.30
2022-10-20T18:39:51.239Z,13.00
2022-10-20T18:42:23.000Z,13.40
2022-10-20T18:44:54.909Z,13.90
2022-10-20T18:47:27.275Z,13.60
2022-10-20T18:49:59.014Z,12.00
2022-10-20T18:52:31.776Z,14.10
2022-10-20T18:55:03.684Z,12.30
2022-10-20T18:57:39.368Z,11.60
2022-10-20T19:00:13.762Z,12.60
2022-10-20T19:05:22.197Z,12.60
2022-10-20T19:07:54.377Z,12.20
2022-10-20T19:10:26.119Z,11.10
2022-10-20T19:12:58.362Z,10.90
2022-10-20T19:15:30.230Z,11.10
2022-10-20T19:18:02.344Z,10.30
2022-10-20T19:20:35.116Z,10.20
2022-10-20T19:23:07.196Z,9.90
2022-10-20T19:25:39.344Z,10.10
2022-10-20T19:28:12.744Z,7.10
2022-10-20T19:30:45.116Z,8.80
2022-10-20T19:33:16.955Z,10.10
2022-10-20T19:35:49.565Z,8.60
2022-10-20T19:38:21.779Z,8.80
2022-10-20T19:40:54.629Z,9.30
2022-10-20T19:45:56.648Z,8.60
2022-10-20T19:48:28.794Z,9.00
2022-10-20T19:51:00.609Z,9.00
2022-10-20T19:53:32.885Z,9.10
2022-10-20T19:56:05.093Z,10.10
2022-10-20T19:58:39.380Z,8.80
2022-10-20T20:01:13.719Z,8.60
2022-10-20T20:03:46.866Z,9.20
2022-10-20T20:06:20.885Z,9.40
2022-10-20T20:08:58.903Z,9.00
2022-10-20T20:11:32.765Z,9.00
2022-10-20T20:14:08.708Z,10.50
2022-10-20T20:16:41.380Z,9.80
2022-10-20T20:21:43.327Z,9.70
2022-10-20T20:24:16.191Z,10.50
2022-10-20T20:26:48.083Z,10.20
2022-10-20T20:29:19.902Z,7.90
2022-10-20T20:31:52.084Z,8.30
2022-10-20T20:34:24.262Z,10.70
2022-10-20T20:36:56.040Z,12.00
2022-10-20T20:39:27.823Z,7.90
2022-10-20T20:42:00.113Z,11.10
2022-10-20T20:44:32.178Z,10.20
2022-10-20T20:47:04.406Z,11.70
2022-10-20T20:49:36.384Z,10.30
2022-10-20T20:52:08.247Z,11.80
2022-10-20T20:54:39.990Z,8.30
2022-10-20T20:57:20.466Z,10.90
2022-10-20T20:59:52.591Z,11.00
2022-10-20T21:02:24.499Z,11.70
2022-10-20T21:04:56.127Z,12.40
2022-10-20T21:07:27.702Z,12.10
2022-10-20T21:09:59.510Z,11.50
2022-10-20T21:12:34.558Z,11.40
2022-10-20T21:15:08.716Z,11.70
2022-10-20T21:17:40.405Z,13.20
2022-10-20T21:20:13.484Z,13.10
2022-10-20T21:22:45.119Z,12.80
2022-10-20T21:25:17.186Z,12.00
2022-10-20T21:27:48.860Z,11.70
2022-10-20T21:30:20.653Z,11.30
2022-10-20T21:32:52.368Z,13.90
2022-10-20T21:35:23.932Z,11.60
2022-10-20T21:37:55.687Z,12.30
2022-10-20T21:40:27.410Z,13.00
2022-10-20T21:42:59.089Z,9.30
2022-10-20T21:45:30.926Z,13.30
2022-10-20T21:48:02.922Z,13.90
2022-10-20T21:50:37.720Z,10.10
2022-10-20T21:53:09.452Z,14.10
2022-10-20T21:55:41.067Z,13.00
2022-10-20T21:58:12.861Z,14.00
2022-10-20T22:00:44.493Z,13.70
2022-10-20T22:03:16.367Z,13.20
2022-10-20T22:05:48.066Z,14.40
2022-10-20T22:08:19.732Z,14.20
2022-10-20T22:10:51.326Z,14.50
2022-10-20T22:13:23.082Z,15.00
2022-10-20T22:15:54.784Z,14.00
2022-10-20T22:18:26.619Z,15.60
2022-10-20T22:20:58.204Z,14.90
2022-10-20T22:23:29.799Z,15.40
2022-10-20T22:26:01.609Z,16.90
2022-10-20T22:28:34.310Z,16.20
2022-10-20T22:33:36.406Z,15.70
2022-10-20T22:36:08.661Z,16.80
2022-10-20T22:38:40.237Z,16.30
2022-10-20T22:41:13.185Z,17.00
2022-10-20T22:43:45.088Z,16.00
2022-10-20T22:46:17.461Z,15.30
2022-10-20T22:48:49.106Z,15.00
2022-10-20T22:51:20.896Z,15.90
2022-10-20T22:53:52.559Z,15.20
2022-10-20T22:56:24.687Z,15.30
2022-10-20T22:58:56.909Z,15.30
2022-10-20T23:01:28.715Z,14.80
2022-10-20T23:04:00.395Z,15.60
2022-10-20T23:06:32.167Z,15.00
2022-10-20T23:09:03.874Z,14.50
2022-10-20T23:11:35.596Z,13.70
2022-10-20T23:14:07.636Z,15.40
2022-10-20T23:16:39.214Z,16.40
2022-10-20T23:19:10.903Z,14.90
2022-10-20T23:21:42.461Z,15.40
2022-10-20T23:24:14.098Z,15.60
2022-10-20T23:26:45.794Z,15.20
2022-10-20T23:29:17.444Z,15.10
2022-10-20T23:31:49.041Z,14.70
2022-10-20T23:34:21.112Z,15.50
2022-10-20T23:36:53.099Z,15.60
2022-10-20T23:39:24.764Z,14.40
2022-10-20T23:41:56.952Z,14.10
2022-10-20T23:44:28.610Z,8.90
2022-10-20T23:47:00.159Z,14.40
2022-10-20T23:49:31.790Z,14.80
2022-10-20T23:52:03.707Z,14.20
2022-10-20T23:54:35.270Z,13.70
2022-10-20T23:57:07.626Z,14.40
2022-10-20T23:59:39.236Z,14.60
